Time;durP1;ratioP1;P1;durP2;ratioP2;P2;SDS_P1;SDS_P2;PMS_P1;PMS_P2;Temp;Humidity;BMP_temperature;BMP_pressure;BME280_temperature;BME280_humidity;BME280_pressure;Samples;Min_cycle;Max_cycle;Signal;HPM_P1;HPM_P2
2022/01/02 00:01:58;;;;;;;9.27;4.65;;;;;;;0.32;100.00;96198.44;5110199;28;20464;-77
2022/01/02 00:04:28;;;;;;;11.85;4.88;;;;;;;0.35;100.00;96200.66;5096439;28;20051;-77
2022/01/02 00:06:54;;;;;;;13.82;4.32;;;;;;;0.27;100.00;96200.78;5108174;28;20465;-77
2022/01/02 00:09:30;;;;;;;10.82;4.78;;;;;;;0.22;100.00;96197.97;5103205;28;20117;-77
2022/01/02 00:12:08;;;;;;;8.55;4.10;;;;;;;0.30;100.00;96195.25;5107364;27;20036;-77
2022/01/02 00:14:36;;;;;;;9.95;4.45;;;;;;;0.24;100.00;96188.22;5095761;27;20647;-77
2022/01/02 00:17:06;;;;;;;9.52;4.50;;;;;;;0.25;100.00;96182.06;5099920;27;20048;-76
2022/01/02 00:19:39;;;;;;;10.75;4.40;;;;;;;0.27;100.00;96180.09;5086966;28;20036;-77
2022/01/02 00:22:13;;;;;;;11.93;4.80;;;;;;;0.26;100.00;96183.66;5092381;28;20036;-77
2022/01/02 00:24:41;;;;;;;8.55;4.63;;;;;;;0.19;100.00;96173.25;5089889;28;20040;-76
2022/01/02 00:27:09;;;;;;;10.88;4.85;;;;;;;0.15;100.00;96167.66;5098216;28;20046;-78
2022/01/02 00:29:37;;;;;;;12.48;4.82;;;;;;;0.10;100.00;96164.84;5106093;27;20062;-78
2022/01/02 00:32:05;;;;;;;8.43;4.28;;;;;;;0.09;100.00;96163.22;5104028;27;20062;-78
2022/01/02 00:34:33;;;;;;;9.93;4.80;;;;;;;0.04;100.00;96162.19;5122616;27;20036;-78
2022/01/02 00:36:59;;;;;;;8.40;4.30;;;;;;;-0.06;100.00;96154.72;5116557;27;20134;-78
2022/01/02 00:39:24;;;;;;;7.57;4.05;;;;;;;-0.11;100.00;96157.88;5113826;27;20473;-78
2022/01/02 00:41:54;;;;;;;9.57;4.25;;;;;;;-0.11;100.00;96151.91;5115040;27;20466;-78
2022/01/02 00:44:43;;;;;;;9.43;4.32;;;;;;;-0.08;100.00;96151.53;5095157;28;20043;-78
2022/01/02 00:47:44;;;;;;;9.13;4.47;;;;;;;-0.20;100.00;96148.66;5094411;27;20109;-78
2022/01/02 00:50:13;;;;;;;11.38;4.53;;;;;;;-0.18;100.00;96147.47;5093591;28;20044;-78
2022/01/02 00:52:44;;;;;;;10.27;4.80;;;;;;;-0.06;100.00;96144.38;5098886;28;20054;-78
2022/01/02 00:55:23;;;;;;;12.38;4.32;;;;;;;-0.09;100.00;96149.94;5097062;28;20127;-78
2022/01/02 00:58:00;;;;;;;9.15;4.55;;;;;;;-0.06;100.00;96144.38;5095673;27;20602;-78
2022/01/02 01:00:27;;;;;;;7.85;4.10;;;;;;;-0.15;100.00;96155.84;5111985;27;20047;-78
2022/01/02 01:02:59;;;;;;;11.35;4.78;;;;;;;-0.15;100.00;96145.50;5096405;28;20048;-78
2022/01/02 01:05:32;;;;;;;9.98;4.45;;;;;;;-0.24;100.00;96148.22;5106882;27;20051;-78
2022/01/02 01:08:00;;;;;;;10.38;4.43;;;;;;;-0.40;100.00;96164.00;5113573;27;20126;-78
2022/01/02 01:10:28;;;;;;;7.15;4.28;;;;;;;-0.32;100.00;96155.28;5094532;28;20044;-78
2022/01/02 01:12:59;;;;;;;12.05;4.47;;;;;;;-0.33;100.00;96153.69;5099277;28;20127;-78
2022/01/02 01:15:28;;;;;;;7.88;4.18;;;;;;;-0.27;100.00;96153.75;5081553;28;20063;-78
2022/01/02 01:17:55;;;;;;;10.07;4.43;;;;;;;-0.22;100.00;96151.41;5112169;27;20047;-78
2022/01/02 01:20:22;;;;;;;7.97;4.32;;;;;;;-0.26;100.00;96150.19;5092420;28;20551;-78
2022/01/02 01:22:49;;;;;;;9.75;4.72;;;;;;;-0.41;100.00;96152.03;5101533;28;20043;-78
2022/01/02 01:25:16;;;;;;;8.52;4.25;;;;;;;-0.50;100.00;96155.69;5108638;28;20573;-79
2022/01/02 01:27:43;;;;;;;8.68;4.30;;;;;;;-0.59;100.00;96150.66;5111925;27;20082;-78
2022/01/02 01:30:11;;;;;;;11.32;4.75;;;;;;;-0.65;100.00;96156.53;5108583;27;20047;-78
2022/01/02 01:32:37;;;;;;;9.55;4.35;;;;;;;-0.71;100.00;96159.88;5117258;27;20476;-78
2022/01/02 01:35:04;;;;;;;7.85;4.20;;;;;;;-0.53;100.00;96160.28;5097515;28;20118;-78
2022/01/02 01:37:31;;;;;;;12.60;4.00;;;;;;;-0.35;100.00;96156.47;5088643;28;20043;-78
2022/01/02 01:39:56;;;;;;;8.73;4.20;;;;;;;-0.30;100.00;96164.47;5115675;27;20103;-78
2022/01/02 01:42:36;;;;;;;9.30;4.00;;;;;;;-0.26;100.00;96165.72;5111644;27;20540;-78
2022/01/02 01:48:05;;;;;;;9.02;3.97;;;;;;;-0.28;100.00;96148.78;5091145;28;20134;-78
2022/01/02 01:50:37;;;;;;;11.38;4.50;;;;;;;-0.33;100.00;96149.34;5101792;28;20513;-78
2022/01/02 01:53:05;;;;;;;9.23;3.83;;;;;;;-0.43;100.00;96148.81;5087594;28;20558;-78
2022/01/02 01:55:35;;;;;;;9.80;4.30;;;;;;;-0.43;100.00;96148.81;5101871;28;20511;-78
2022/01/02 01:58:03;;;;;;;11.75;3.95;;;;;;;-0.49;100.00;96144.38;5099049;28;20047;-78
2022/01/02 02:00:29;;;;;;;7.65;4.05;;;;;;;-0.55;100.00;96141.56;5100474;28;20036;-78
2022/01/02 02:02:56;;;;;;;8.05;3.80;;;;;;;-0.57;100.00;96138.34;5094425;28;20054;-78
2022/01/02 02:05:22;;;;;;;8.57;3.80;;;;;;;-0.58;100.00;96125.59;5107898;28;20039;-78
2022/01/02 02:07:47;;;;;;;9.63;4.65;;;;;;;-0.61;100.00;96124.19;5114592;28;20095;-79
2022/01/02 02:10:18;;;;;;;9.07;4.35;;;;;;;-0.57;100.00;96122.84;5077225;28;20513;-79
2022/01/02 02:12:46;;;;;;;8.88;4.32;;;;;;;-0.69;100.00;96113.94;5101187;28;20049;-78
2022/01/02 02:15:15;;;;;;;10.23;4.60;;;;;;;-0.77;100.00;96111.50;5112882;28;20042;-79
2022/01/02 02:17:43;;;;;;;8.80;4.22;;;;;;;-0.67;100.00;96111.22;5095540;28;20036;-78
2022/01/02 02:20:11;;;;;;;10.00;4.07;;;;;;;-0.57;100.00;96102.16;5092910;28;20044;-78
2022/01/02 02:22:42;;;;;;;9.77;4.63;;;;;;;-0.74;100.00;96111.13;5095223;28;20467;-76
2022/01/02 02:25:09;;;;;;;9.57;4.22;;;;;;;-0.75;100.00;96107.75;5099773;27;20075;-78
2022/01/02 02:27:35;;;;;;;12.07;4.63;;;;;;;-0.70;100.00;96107.19;5121037;27;20039;-78
2022/01/02 02:30:01;;;;;;;9.40;4.57;;;;;;;-0.63;100.00;96105.47;5098304;28;20071;-78
2022/01/02 02:32:27;;;;;;;9.23;4.20;;;;;;;-0.48;100.00;96089.09;5116050;27;20112;-78
2022/01/02 02:34:52;;;;;;;9.98;4.75;;;;;;;-0.45;100.00;96091.31;5111707;27;20036;-78
2022/01/02 02:37:18;;;;;;;9.98;4.35;;;;;;;-0.49;100.00;96098.63;5093275;28;20421;-78
2022/01/02 02:39:43;;;;;;;9.10;4.40;;;;;;;-0.57;100.00;96096.97;5101772;28;20134;-79
2022/01/02 02:42:25;;;;;;;10.07;4.45;;;;;;;-0.52;100.00;96086.06;5112561;28;20043;-78
2022/01/02 02:44:58;;;;;;;10.85;5.00;;;;;;;-0.46;100.00;96081.94;5102315;27;20039;-78
2022/01/02 02:50:08;;;;;;;11.98;4.65;;;;;;;-0.63;100.00;96079.63;5096667;28;20051;-79
2022/01/02 02:52:46;;;;;;;10.18;4.85;;;;;;;-0.75;100.00;96081.09;5104857;27;20047;-78
2022/01/02 02:55:12;;;;;;;9.38;4.47;;;;;;;-0.72;100.00;96083.31;5099789;27;20416;-78
2022/01/02 02:57:39;;;;;;;11.52;4.60;;;;;;;-0.50;100.00;96075.53;5093595;28;20044;-78
2022/01/02 03:00:06;;;;;;;10.30;4.35;;;;;;;-0.56;100.00;96062.41;5092996;28;20121;-78
2022/01/02 03:02:31;;;;;;;10.20;4.25;;;;;;;-0.63;100.00;96061.53;5101474;28;20047;-79
2022/01/02 03:04:57;;;;;;;8.80;3.90;;;;;;;-0.56;100.00;96057.22;5111091;27;20467;-78
2022/01/02 03:07:22;;;;;;;9.48;3.97;;;;;;;-0.55;100.00;96043.31;5099010;27;20051;-78
2022/01/02 03:09:50;;;;;;;8.93;3.95;;;;;;;-0.70;100.00;96045.16;5090548;28;20039;-78
2022/01/02 03:12:16;;;;;;;9.38;4.13;;;;;;;-0.81;100.00;96048.22;5118922;27;20039;-79
2022/01/02 03:14:42;;;;;;;9.95;4.00;;;;;;;-0.84;100.00;96048.59;5103555;28;20047;-79
2022/01/02 03:17:07;;;;;;;9.93;4.35;;;;;;;-0.72;100.00;96052.28;5099147;28;20405;-78
2022/01/02 03:19:34;;;;;;;7.00;3.60;;;;;;;-0.84;100.00;96048.59;5092663;28;20040;-78
2022/01/02 03:22:00;;;;;;;7.47;3.65;;;;;;;-0.98;100.00;96048.44;5096935;28;20089;-79
2022/01/02 03:24:25;;;;;;;8.65;3.95;;;;;;;-0.91;100.00;96051.91;5080330;27;20051;-77
2022/01/02 03:26:52;;;;;;;6.13;3.55;;;;;;;-0.72;100.00;96041.94;5091585;27;20090;-78
2022/01/02 03:29:17;;;;;;;10.05;3.95;;;;;;;-0.58;100.00;96032.53;5094161;28;20047;-78
2022/01/02 03:31:43;;;;;;;9.15;3.38;;;;;;;-0.73;100.00;96025.66;5099061;28;20059;-78
2022/01/02 03:34:09;;;;;;;7.90;3.40;;;;;;;-0.76;100.00;96030.38;5090810;28;20044;-79
2022/01/02 03:36:34;;;;;;;7.55;3.30;;;;;;;-0.81;100.00;96030.16;5102679;27;20137;-78
2022/01/02 03:39:00;;;;;;;9.90;3.00;;;;;;;-0.75;100.00;96021.66;5108037;27;20055;-78
2022/01/02 03:41:26;;;;;;;7.95;3.13;;;;;;;-0.87;100.00;96021.34;5085695;28;20040;-78
2022/01/02 03:43:51;;;;;;;8.68;3.70;;;;;;;-1.13;100.00;96027.84;5101334;28;20450;-79
2022/01/02 03:46:17;;;;;;;7.47;3.40;;;;;;;-1.09;100.00;96030.88;5110686;27;20039;-79
2022/01/02 03:48:43;;;;;;;6.68;3.25;;;;;;;-0.86;100.00;96030.69;5100228;28;20040;-78
2022/01/02 03:51:08;;;;;;;7.60;3.58;;;;;;;-0.99;100.00;96027.97;5092608;28;20040;-79
2022/01/02 03:53:34;;;;;;;7.75;3.38;;;;;;;-1.03;100.00;96024.97;5092234;28;20512;-79
2022/01/02 03:56:00;;;;;;;8.20;3.28;;;;;;;-0.85;100.00;96010.81;5099452;27;20044;-78
2022/01/02 03:58:25;;;;;;;6.82;3.42;;;;;;;-0.96;100.00;96015.50;5109444;27;20032;-78
2022/01/02 04:00:51;;;;;;;7.55;3.45;;;;;;;-0.91;100.00;96018.31;5102274;28;20054;-78
2022/01/02 04:03:17;;;;;;;5.85;2.92;;;;;;;-0.77;100.00;96013.28;5097484;28;20032;-78
2022/01/02 04:05:43;;;;;;;8.38;3.28;;;;;;;-0.71;100.00;96000.41;5092516;28;20040;-78
2022/01/02 04:08:09;;;;;;;6.20;2.60;;;;;;;-0.71;100.00;95991.84;5116239;27;20035;-78
2022/01/02 04:10:35;;;;;;;5.60;2.80;;;;;;;-0.82;100.00;95994.94;5095513;28;20044;-78
2022/01/02 04:13:00;;;;;;;7.95;3.28;;;;;;;-0.82;100.00;95994.94;5111541;28;20048;-78
2022/01/02 04:15:26;;;;;;;4.60;2.67;;;;;;;-0.75;100.00;95995.78;5101793;28;20441;-78
2022/01/02 04:17:52;;;;;;;5.43;2.70;;;;;;;-0.94;100.00;95992.06;5113392;27;20044;-79
2022/01/02 04:20:17;;;;;;;5.30;2.92;;;;;;;-1.26;100.00;95997.50;5098152;28;20047;-79
2022/01/02 04:22:43;;;;;;;7.13;2.92;;;;;;;-1.13;100.00;95996.06;5092372;28;20040;-78
2022/01/02 04:25:11;;;;;;;5.55;2.72;;;;;;;-1.02;100.00;95999.91;5092588;28;20489;-78
2022/01/02 04:27:36;;;;;;;5.65;2.70;;;;;;;-0.89;100.00;95985.34;5127142;27;20043;-78
2022/01/02 04:30:05;;;;;;;5.53;2.70;;;;;;;-0.94;100.00;95985.09;5080738;28;20445;-79
2022/01/02 04:32:30;;;;;;;5.18;2.70;;;;;;;-0.96;100.00;95983.69;5111019;28;20047;-78
2022/01/02 04:34:56;;;;;;;5.85;2.95;;;;;;;-0.83;100.00;95983.00;5107244;28;20093;-78
2022/01/02 04:37:21;;;;;;;4.18;2.35;;;;;;;-0.77;100.00;95987.44;5114233;27;20131;-78
2022/01/02 04:39:47;;;;;;;5.35;2.75;;;;;;;-0.93;100.00;95978.94;5112737;27;20039;-78
2022/01/02 04:42:13;;;;;;;4.65;2.60;;;;;;;-0.98;100.00;95981.28;5103119;28;20044;-79
2022/01/02 04:44:38;;;;;;;5.05;2.47;;;;;;;-0.93;100.00;95973.78;5096818;28;20121;-78
2022/01/02 04:47:04;;;;;;;7.30;2.65;;;;;;;-1.02;100.00;95980.06;5113673;27;20070;-79
2022/01/02 04:49:30;;;;;;;4.57;2.40;;;;;;;-0.99;100.00;95979.69;5109248;28;20447;-79
2022/01/02 04:51:55;;;;;;;5.13;2.80;;;;;;;-1.01;100.00;95986.81;5101462;28;20050;-79
2022/01/02 04:54:22;;;;;;;5.35;2.40;;;;;;;-1.01;100.00;95984.22;5098133;28;20074;-78
2022/01/02 04:56:47;;;;;;;5.20;2.70;;;;;;;-0.85;100.00;95975.44;5092374;28;20485;-79
2022/01/02 04:59:13;;;;;;;4.78;2.35;;;;;;;-0.82;100.00;95984.59;5110586;27;20075;-79
2022/01/02 05:01:38;;;;;;;9.35;2.50;;;;;;;-0.87;100.00;95982.59;5110589;27;20485;-78
2022/01/02 05:04:04;;;;;;;5.35;2.53;;;;;;;-0.85;100.00;95983.19;5093078;28;20055;-78
2022/01/02 05:06:29;;;;;;;8.40;2.58;;;;;;;-0.85;100.00;95974.66;5098539;28;20039;-78
2022/01/02 05:08:55;;;;;;;3.88;2.40;;;;;;;-0.95;100.00;95964.63;5110035;28;20499;-78
2022/01/02 05:11:20;;;;;;;5.35;2.22;;;;;;;-0.95;100.00;95975.78;5102887;28;20040;-78
2022/01/02 05:13:46;;;;;;;5.35;2.20;;;;;;;-0.92;100.00;95970.22;5095792;28;20036;-79
2022/01/02 05:16:12;;;;;;;4.40;2.20;;;;;;;-0.95;100.00;95969.78;5096919;27;20354;-78
2022/01/02 05:18:37;;;;;;;3.88;2.17;;;;;;;-0.99;100.00;95959.03;5090535;28;20489;-79
2022/01/02 05:21:03;;;;;;;3.70;1.98;;;;;;;-1.05;100.00;95949.41;5105244;27;20083;-79
2022/01/02 05:23:29;;;;;;;4.72;2.22;;;;;;;-1.05;100.00;95954.59;5125229;27;20050;-79
2022/01/02 05:25:57;;;;;;;4.05;2.33;;;;;;;-1.02;100.00;95953.41;5089060;28;20055;-79
2022/01/02 05:28:23;;;;;;;4.60;2.20;;;;;;;-1.02;100.00;95943.91;5090990;28;20072;-79
2022/01/02 05:30:49;;;;;;;4.47;2.22;;;;;;;-1.07;100.00;95941.06;5095226;28;20040;-78
2022/01/02 05:33:15;;;;;;;3.67;2.00;;;;;;;-1.03;100.00;95942.31;5096493;28;20089;-78
2022/01/02 05:35:40;;;;;;;5.15;2.17;;;;;;;-1.11;100.00;95934.66;5105220;27;20465;-79
2022/01/02 05:38:06;;;;;;;5.10;2.17;;;;;;;-1.19;100.00;95937.38;5112762;27;20115;-78
2022/01/02 05:40:32;;;;;;;5.78;2.30;;;;;;;-1.11;100.00;95940.63;5111045;28;20514;-78
2022/01/02 05:43:05;;;;;;;3.90;2.13;;;;;;;-1.11;100.00;95934.66;5123312;27;20040;-79
2022/01/02 05:45:31;;;;;;;4.25;2.03;;;;;;;-1.24;100.00;95936.13;5105845;28;20093;-78
2022/01/02 05:47:56;;;;;;;5.65;2.03;;;;;;;-1.30;100.00;95931.72;5095360;28;20036;-78
2022/01/02 05:50:22;;;;;;;3.83;1.80;;;;;;;-1.17;100.00;95935.41;5091303;28;20036;-78
2022/01/02 05:52:48;;;;;;;4.55;2.00;;;;;;;-1.15;100.00;95928.28;5108989;28;20515;-79
2022/01/02 05:55:13;;;;;;;3.33;2.03;;;;;;;-1.15;100.00;95923.09;5105807;28;20044;-78
2022/01/02 05:57:39;;;;;;;4.55;2.13;;;;;;;-1.18;100.00;95918.31;5106277;28;20512;-79
2022/01/02 06:00:07;;;;;;;5.30;1.85;;;;;;;-1.20;100.00;95931.41;5109271;27;20043;-79
2022/01/02 06:02:32;;;;;;;4.22;2.03;;;;;;;-1.36;100.00;95927.28;5122004;27;20044;-79
2022/01/02 06:04:58;;;;;;;5.78;1.90;;;;;;;-1.27;100.00;95926.19;5117798;27;20039;-78
2022/01/02 06:07:24;;;;;;;5.68;1.67;;;;;;;-1.31;100.00;95924.94;5126382;27;20059;-79
2022/01/02 06:09:50;;;;;;;5.05;2.13;;;;;;;-1.39;100.00;95917.34;5097545;27;20390;-78
2022/01/02 06:12:15;;;;;;;3.78;2.00;;;;;;;-1.38;100.00;95918.91;5081198;28;20032;-79
2022/01/02 06:14:41;;;;;;;4.20;2.00;;;;;;;-1.34;100.00;95914.97;5112826;27;20043;-79
2022/01/02 06:17:07;;;;;;;4.78;2.25;;;;;;;-1.39;100.00;95917.34;5115168;27;20047;-79
2022/01/02 06:19:32;;;;;;;6.13;2.28;;;;;;;-1.44;100.00;95914.50;5095187;28;20072;-79
2022/01/02 06:21:58;;;;;;;2.72;1.67;;;;;;;-1.30;100.00;95910.25;5098203;28;20491;-78
2022/01/02 06:24:23;;;;;;;5.63;2.28;;;;;;;-1.19;100.00;95921.88;5111089;27;20036;-78
2022/01/02 06:26:49;;;;;;;4.05;2.00;;;;;;;-1.24;100.00;95910.31;5100441;27;20040;-78
2022/01/02 06:29:15;;;;;;;4.32;2.03;;;;;;;-1.28;100.00;95916.03;5115024;28;20055;-78
2022/01/02 06:31:40;;;;;;;3.92;2.10;;;;;;;-1.33;100.00;95911.44;5078999;28;20114;-79
2022/01/02 06:34:05;;;;;;;3.05;1.70;;;;;;;-1.33;100.00;95911.44;5102887;28;20077;-78
2022/01/02 06:36:31;;;;;;;3.40;2.00;;;;;;;-1.28;100.00;95903.94;5111570;27;20032;-79
2022/01/02 06:38:57;;;;;;;5.43;2.30;;;;;;;-1.34;100.00;95904.66;5102811;27;20044;-80
2022/01/02 06:41:22;;;;;;;4.15;2.00;;;;;;;-1.47;100.00;95900.16;5112576;28;20047;-78
2022/01/02 06:43:52;;;;;;;3.75;1.80;;;;;;;-1.48;100.00;95908.09;5094330;28;20516;-78
2022/01/02 06:46:18;;;;;;;4.43;2.20;;;;;;;-1.55;100.00;95909.81;5102088;27;20064;-79
2022/01/02 06:48:44;;;;;;;3.85;2.25;;;;;;;-1.64;100.00;95909.13;5128177;27;20724;-78
2022/01/02 06:51:10;;;;;;;4.13;2.00;;;;;;;-1.49;100.00;95906.50;5103003;28;20048;-79
2022/01/02 06:53:35;;;;;;;4.13;2.10;;;;;;;-1.29;100.00;95902.34;5107704;28;20501;-78
2022/01/02 06:56:01;;;;;;;4.32;2.00;;;;;;;-1.38;100.00;95900.84;5105453;27;20039;-78
2022/01/02 06:58:26;;;;;;;3.92;1.80;;;;;;;-1.31;100.00;95914.63;5107826;27;20130;-78
2022/01/02 07:00:52;;;;;;;4.50;1.80;;;;;;;-1.19;100.00;95906.38;5108640;28;20413;-78
2022/01/02 07:03:17;;;;;;;5.30;2.03;;;;;;;-1.12;100.00;95902.06;5107273;28;20416;-79
2022/01/02 07:05:43;;;;;;;2.95;1.80;;;;;;;-1.09;100.00;95912.06;5104591;27;20088;-79
2022/01/02 07:08:08;;;;;;;6.13;2.13;;;;;;;-1.06;100.00;95907.28;5109767;27;20096;-78
2022/01/02 07:10:34;;;;;;;6.35;1.90;;;;;;;-1.06;100.00;95916.84;5115648;27;20048;-78
2022/01/02 07:13:00;;;;;;;3.95;2.20;;;;;;;-1.03;100.00;95916.47;5112247;28;20047;-79
2022/01/02 07:15:25;;;;;;;4.65;2.30;;;;;;;-1.00;100.00;95910.91;5076382;28;20745;-78
2022/01/02 07:17:51;;;;;;;5.03;1.77;;;;;;;-0.93;100.00;95916.94;5114828;27;20039;-78
2022/01/02 07:20:16;;;;;;;5.88;2.28;;;;;;;-0.92;100.00;95907.41;5116494;27;20047;-78
2022/01/02 07:22:42;;;;;;;5.07;1.98;;;;;;;-0.90;100.00;95906.22;5111683;28;20426;-79
2022/01/02 07:25:09;;;;;;;7.22;2.80;;;;;;;-0.87;100.00;95905.06;5108443;28;20048;-79
2022/01/02 07:27:35;;;;;;;4.45;1.90;;;;;;;-0.92;100.00;95904.81;5098759;28;20043;-79
2022/01/02 07:30:00;;;;;;;7.20;2.00;;;;;;;-0.97;100.00;95905.38;5093831;28;20043;-79
2022/01/02 07:32:26;;;;;;;7.05;2.63;;;;;;;-1.08;100.00;95905.88;5116809;27;20043;-79
2022/01/02 07:34:52;;;;;;;4.25;2.13;;;;;;;-1.10;100.00;95910.44;5098898;27;20035;-79
2022/01/02 07:37:18;;;;;;;6.43;2.33;;;;;;;-1.01;100.00;95909.31;5125249;27;20047;-79
2022/01/02 07:39:43;;;;;;;3.65;1.92;;;;;;;-0.83;100.00;95908.88;5097396;28;20063;-79
2022/01/02 07:42:09;;;;;;;4.28;1.92;;;;;;;-0.84;100.00;95906.47;5100172;28;20036;-79
2022/01/02 07:44:37;;;;;;;4.55;1.80;;;;;;;-0.71;100.00;95903.97;5106925;28;20036;-79
2022/01/02 07:47:04;;;;;;;5.35;2.22;;;;;;;-0.54;100.00;95904.50;5097588;28;20044;-79
2022/01/02 07:49:29;;;;;;;3.53;1.80;;;;;;;-0.51;100.00;95903.31;5096621;28;20043;-79
2022/01/02 07:51:55;;;;;;;4.35;2.00;;;;;;;-0.49;100.00;95896.94;5119449;27;20039;-78
2022/01/02 07:54:20;;;;;;;6.15;2.00;;;;;;;-0.43;100.00;95895.41;5106770;27;20071;-78
2022/01/02 07:56:46;;;;;;;4.32;1.90;;;;;;;-0.39;100.00;95896.63;5091358;28;20044;-78
2022/01/02 07:59:12;;;;;;;5.05;1.90;;;;;;;-0.26;100.00;95878.59;5089010;28;20039;-78
2022/01/02 08:01:37;;;;;;;5.68;1.90;;;;;;;-0.29;100.00;95889.31;5102320;28;20044;-78
2022/01/02 08:04:03;;;;;;;4.60;1.92;;;;;;;-0.15;100.00;95881.63;5109256;28;20412;-79
2022/01/02 08:06:29;;;;;;;4.40;1.92;;;;;;;-0.21;100.00;95889.16;5104739;28;20062;-79
2022/01/02 08:08:54;;;;;;;4.53;1.83;;;;;;;-0.15;100.00;95886.81;5110186;28;20047;-79
2022/01/02 08:11:20;;;;;;;5.25;2.28;;;;;;;0.05;100.00;95882.50;5106406;27;20092;-79
2022/01/02 08:13:46;;;;;;;7.40;2.58;;;;;;;0.12;100.00;95878.16;5113229;27;20046;-79
2022/01/02 08:16:12;;;;;;;4.93;2.15;;;;;;;0.12;100.00;95872.97;5081932;28;20069;-78
2022/01/02 08:18:39;;;;;;;4.80;2.15;;;;;;;0.22;100.00;95877.00;5103548;27;20085;-79
2022/01/02 08:21:05;;;;;;;4.47;2.25;;;;;;;0.25;100.00;95871.44;5102121;28;20101;-78
2022/01/02 08:23:31;;;;;;;5.97;2.42;;;;;;;0.17;100.00;95869.78;5099016;28;20413;-79
2022/01/02 08:25:56;;;;;;;4.75;2.10;;;;;;;0.28;100.00;95876.22;5081412;28;20040;-79
2022/01/02 08:28:22;;;;;;;9.52;2.70;;;;;;;0.46;100.00;95868.69;5097265;28;20556;-79
2022/01/02 08:30:48;;;;;;;5.07;2.40;;;;;;;0.59;100.00;95867.09;5116866;27;20032;-78
2022/01/02 08:33:14;;;;;;;5.32;2.55;;;;;;;0.46;100.00;95863.50;5096254;28;20406;-78
2022/01/02 08:35:41;;;;;;;6.65;2.50;;;;;;;0.29;100.00;95859.69;5096426;28;20136;-79
2022/01/02 08:38:06;;;;;;;6.10;2.50;;;;;;;0.25;100.00;95861.06;5101790;27;20150;-79
2022/01/02 08:40:32;;;;;;;4.22;2.08;;;;;;;0.46;100.00;95866.09;5096496;28;20048;-79
2022/01/02 08:42:58;;;;;;;7.10;2.50;;;;;;;0.60;100.00;95858.34;5101533;28;20040;-78
2022/01/02 08:45:23;;;;;;;9.15;2.75;;;;;;;0.69;100.00;95849.41;5076653;28;20043;-76
2022/01/02 08:47:49;;;;;;;11.48;5.18;;;;;;;0.72;100.00;95856.78;5112210;27;20032;-76
2022/01/02 08:50:15;;;;;;;9.88;2.75;;;;;;;0.67;100.00;95851.38;5096890;28;20059;-77
2022/01/02 08:52:41;;;;;;;6.68;2.45;;;;;;;0.82;100.00;95852.00;5102720;27;20069;-79
2022/01/02 08:55:07;;;;;;;5.25;2.42;;;;;;;1.10;100.00;95848.38;5089660;28;20048;-78
2022/01/02 08:57:32;;;;;;;5.18;2.35;;;;;;;1.20;100.00;95848.75;5100457;28;20051;-77
2022/01/02 08:59:58;;;;;;;4.35;2.13;;;;;;;1.39;100.00;95851.53;5095233;28;20474;-77
2022/01/02 09:02:24;;;;;;;6.32;2.45;;;;;;;1.48;100.00;95850.34;5080203;28;20051;-77
2022/01/02 09:04:49;;;;;;;4.97;2.28;;;;;;;1.64;100.00;95853.47;5095497;28;20040;-77
2022/01/02 09:07:15;;;;;;;5.43;2.50;;;;;;;1.83;100.00;95852.63;5101217;28;20120;-76
2022/01/02 09:09:41;;;;;;;5.90;2.70;;;;;;;2.15;100.00;95841.50;5089733;28;20683;-77
2022/01/02 09:12:07;;;;;;;6.03;2.53;;;;;;;2.21;100.00;95838.88;5095030;28;20032;-78
2022/01/02 09:14:33;;;;;;;11.93;2.60;;;;;;;2.28;100.00;95838.03;5091144;28;20574;-76
2022/01/02 09:16:59;;;;;;;5.47;2.33;;;;;;;2.34;100.00;95842.38;5087677;28;20040;-77
2022/01/02 09:19:24;;;;;;;5.10;2.28;;;;;;;2.49;100.00;95842.91;5086124;28;20047;-79
2022/01/02 09:21:50;;;;;;;8.32;2.50;;;;;;;2.46;100.00;95845.94;5094501;28;20454;-77
2022/01/02 09:24:15;;;;;;;5.97;2.95;;;;;;;2.67;100.00;95831.00;5088667;28;20047;-77
2022/01/02 09:26:41;;;;;;;9.27;2.70;;;;;;;2.56;100.00;95835.88;5091459;28;20036;-79
2022/01/02 09:29:07;;;;;;;6.00;2.72;;;;;;;2.55;100.00;95823.88;5097156;28;20043;-79
2022/01/02 09:31:32;;;;;;;8.35;2.80;;;;;;;2.50;100.00;95826.31;5076505;28;20043;-80
2022/01/02 09:33:58;;;;;;;8.80;2.63;;;;;;;2.47;100.00;95826.75;5100597;28;20044;-76
2022/01/02 09:36:23;;;;;;;7.60;2.83;;;;;;;2.52;100.00;95831.31;5097995;28;20202;-78
2022/01/02 09:38:50;;;;;;;7.25;3.00;;;;;;;2.82;100.00;95838.50;5081304;28;20039;-77
2022/01/02 09:41:19;;;;;;;9.38;3.05;;;;;;;3.09;100.00;95841.69;5104542;28;20100;-77
2022/01/02 09:43:44;;;;;;;6.55;3.17;;;;;;;3.45;100.00;95832.34;5103467;28;20374;-79
2022/01/02 09:46:11;;;;;;;8.20;2.88;;;;;;;3.75;99.20;95834.19;5103627;28;20564;-78
2022/01/02 09:48:37;;;;;;;6.95;2.97;;;;;;;4.64;96.92;95834.47;5096483;28;20040;-79
2022/01/02 09:51:02;;;;;;;5.40;2.72;;;;;;;6.71;85.75;95829.81;5089619;28;20043;-78
2022/01/02 09:53:28;;;;;;;7.65;2.95;;;;;;;8.25;78.84;95825.06;5088553;28;20044;-78
2022/01/02 09:55:54;;;;;;;5.65;2.70;;;;;;;8.87;75.79;95830.94;5104530;28;20043;-77
2022/01/02 09:58:20;;;;;;;5.68;2.60;;;;;;;9.12;73.92;95818.00;5112926;28;20048;-79
2022/01/02 10:00:48;;;;;;;8.32;2.90;;;;;;;9.84;71.33;95823.66;5101689;28;20040;-78
2022/01/02 10:03:14;;;;;;;5.57;2.50;;;;;;;10.13;70.69;95820.59;5090863;28;20043;-76
2022/01/02 10:05:49;;;;;;;5.70;2.10;;;;;;;10.88;62.02;95824.69;5110329;28;20047;-77
2022/01/02 10:08:28;;;;;;;;;;;;;;;12.00;61.92;95827.44;5091066;28;20052;-74
2022/01/02 10:11:24;;;;;;;2.75;1.60;;;;;;;12.49;59.99;95818.72;5093154;28;19981;-74
2022/01/02 10:14:01;;;;;;;2.30;1.50;;;;;;;11.63;64.35;95823.31;5082098;28;20139;-77
2022/01/02 10:16:31;;;;;;;4.43;1.70;;;;;;;11.73;64.45;95812.72;5092499;28;20062;-77
2022/01/02 10:18:59;;;;;;;3.53;1.60;;;;;;;13.31;61.26;95796.94;5109627;28;20043;-77
2022/01/02 10:21:33;;;;;;;2.67;1.55;;;;;;;13.80;55.91;95781.13;5091964;28;20043;-77
2022/01/02 10:24:21;;;;;;;2.28;1.40;;;;;;;14.49;52.13;95786.06;5105798;28;20046;-76
2022/01/02 10:27:08;;;;;;;3.53;1.60;;;;;;;14.41;54.45;95778.75;5096688;28;20055;-77
2022/01/02 10:29:54;;;;;;;3.40;1.80;;;;;;;14.76;52.84;95774.03;5106151;28;20043;-75
2022/01/02 10:32:24;;;;;;;3.83;1.80;;;;;;;14.33;53.70;95778.31;5097913;28;20067;-75
2022/01/02 10:34:50;;;;;;;3.50;1.77;;;;;;;14.95;53.92;95774.78;5104356;28;20047;-75
2022/01/02 10:37:26;;;;;;;3.83;1.60;;;;;;;16.05;48.56;95775.97;5087961;28;20413;-75
2022/01/02 10:39:52;;;;;;;1.88;1.33;;;;;;;16.14;47.10;95780.56;5098151;28;20044;-75
2022/01/02 10:42:19;;;;;;;3.53;1.50;;;;;;;16.38;41.96;95773.13;5099947;28;20553;-78
2022/01/02 10:44:46;;;;;;;2.65;1.70;;;;;;;16.90;42.15;95764.78;5098239;28;20103;-78
2022/01/02 10:47:11;;;;;;;4.65;1.80;;;;;;;17.44;40.15;95763.97;5095001;28;20032;-77
2022/01/02 10:49:46;;;;;;;2.75;1.75;;;;;;;18.61;36.63;95766.25;5101968;27;20405;-77
2022/01/02 10:52:19;;;;;;;2.33;1.40;;;;;;;18.62;33.90;95767.81;5097708;28;20101;-77
2022/01/02 10:54:45;;;;;;;1.83;1.30;;;;;;;19.04;32.40;95768.13;5090927;28;20048;-77
2022/01/02 10:57:12;;;;;;;1.40;1.30;;;;;;;18.65;32.61;95767.19;5082258;28;20097;-77
2022/01/02 10:59:39;;;;;;;4.35;1.30;;;;;;;19.18;32.69;95757.25;5104560;27;20107;-76
2022/01/02 11:02:05;;;;;;;1.75;1.27;;;;;;;19.27;30.92;95766.00;5103164;27;20036;-76
2022/01/02 11:04:32;;;;;;;1.30;1.20;;;;;;;19.51;30.76;95748.66;5105265;27;20180;-74
2022/01/02 11:07:02;;;;;;;1.67;1.30;;;;;;;18.87;31.33;95753.69;5104062;27;20047;-77
2022/01/02 11:09:28;;;;;;;2.80;1.48;;;;;;;18.34;30.15;95741.47;5108144;27;20036;-78
2022/01/02 11:11:54;;;;;;;3.40;1.85;;;;;;;17.44;32.06;95743.47;5103251;28;20190;-76
2022/01/02 11:14:20;;;;;;;2.25;1.52;;;;;;;17.47;32.68;95748.19;5095530;28;20673;-75
2022/01/02 11:16:46;;;;;;;1.95;1.40;;;;;;;17.89;32.36;95749.72;5111253;27;20445;-77
2022/01/02 11:19:12;;;;;;;1.40;1.20;;;;;;;17.36;34.54;95749.53;5090886;28;20035;-77
2022/01/02 11:21:44;;;;;;;1.58;1.38;;;;;;;16.48;33.94;95752.72;5102541;28;20074;-77
2022/01/02 11:24:18;;;;;;;2.33;1.50;;;;;;;16.55;34.72;95755.75;5111840;28;20043;-78
2022/01/02 11:26:54;;;;;;;1.60;1.30;;;;;;;18.05;33.08;95740.22;5105751;28;20044;-78
2022/01/02 11:29:30;;;;;;;1.73;1.30;;;;;;;18.44;30.50;95738.50;5113135;28;20035;-76
2022/01/02 11:31:55;;;;;;;1.75;1.20;;;;;;;18.77;31.32;95735.34;5098998;28;20058;-77
2022/01/02 11:34:21;;;;;;;1.95;1.27;;;;;;;18.95;31.10;95740.66;5093578;27;20044;-76